Time;durP1;ratioP1;P1;durP2;ratioP2;P2;SDS_P1;SDS_P2;PMS_P1;PMS_P2;Temp;Humidity;BMP_temperature;BMP_pressure;BME280_temperature;BME280_humidity;BME280_pressure;Samples;Min_cycle;Max_cycle;Signal;HPM_P1;HPM_P2
2021/08/06 00:00:58;;;;;;;42.53;38.47;;;16.30;99.90;;;;;;6222444;23;20009;-80
2021/08/06 00:03:27;;;;;;;43.83;40.15;;;16.40;99.90;;;;;;6221711;23;20083;-82
2021/08/06 00:05:54;;;;;;;45.78;41.83;;;16.30;99.90;;;;;;6213069;23;20104;-82
2021/08/06 00:08:21;;;;;;;27.42;24.50;;;16.20;99.90;;;;;;6220951;23;20021;-81
2021/08/06 00:10:47;;;;;;;51.88;47.22;;;16.20;99.90;;;;;;6222645;23;20016;-82
2021/08/06 00:13:13;;;;;;;38.03;34.50;;;16.20;99.90;;;;;;6211537;23;20023;-82
2021/08/06 00:15:39;;;;;;;43.67;39.78;;;16.20;99.90;;;;;;6222620;23;20336;-82
2021/08/06 00:18:05;;;;;;;42.70;38.97;;;16.20;99.90;;;;;;6212288;23;20017;-81
2021/08/06 00:20:31;;;;;;;46.03;41.63;;;16.20;99.90;;;;;;6222216;23;20324;-82
2021/08/06 00:22:56;;;;;;;43.33;39.50;;;16.20;99.90;;;;;;6211978;23;20470;-80
2021/08/06 00:25:23;;;;;;;54.05;48.75;;;16.20;99.90;;;;;;6222480;23;20340;-80
2021/08/06 00:27:49;;;;;;;46.53;42.30;;;16.10;99.90;;;;;;6212415;23;20020;-82
2021/08/06 00:30:15;;;;;;;53.15;48.47;;;16.10;99.90;;;;;;6212304;23;20016;-81
2021/08/06 00:32:40;;;;;;;47.65;43.30;;;16.10;99.90;;;;;;6222459;23;20013;-82
2021/08/06 00:35:07;;;;;;;49.25;44.42;;;16.10;99.90;;;;;;6222773;23;20063;-81
2021/08/06 00:37:36;;;;;;;40.42;36.80;;;16.10;99.90;;;;;;6222402;23;20044;-82
2021/08/06 00:40:02;;;;;;;44.40;40.47;;;16.20;99.90;;;;;;6221209;23;20353;-82
2021/08/06 00:42:27;;;;;;;51.42;46.00;;;16.10;99.90;;;;;;6222508;23;20316;-82
2021/08/06 00:44:53;;;;;;;43.38;39.72;;;16.00;99.90;;;;;;6212115;23;20091;-82
2021/08/06 00:47:19;;;;;;;36.40;33.20;;;16.10;99.90;;;;;;6222149;23;20013;-81
2021/08/06 00:49:45;;;;;;;39.65;36.28;;;16.00;99.90;;;;;;6223914;23;20024;-82
2021/08/06 00:52:11;;;;;;;35.30;32.17;;;16.00;99.90;;;;;;6214224;23;20066;-82
2021/08/06 00:54:37;;;;;;;41.13;37.58;;;16.00;99.90;;;;;;6222801;23;20019;-81
2021/08/06 00:57:04;;;;;;;44.00;40.20;;;16.10;99.90;;;;;;6197432;23;20016;-81
2021/08/06 00:59:29;;;;;;;42.05;38.53;;;16.00;99.90;;;;;;6187728;23;20067;-81
2021/08/06 01:02:29;;;;;;;44.13;40.15;;;16.00;99.90;;;;;;6213817;23;20012;-81
2021/08/06 01:05:12;;;;;;;36.30;32.85;;;15.90;99.90;;;;;;6069129;23;20023;-81
2021/08/06 01:08:01;;;;;;;40.85;37.28;;;16.00;99.90;;;;;;6092479;23;20023;-82
2021/08/06 01:10:35;;;;;;;37.92;34.42;;;16.00;99.90;;;;;;6092614;23;20014;-80
2021/08/06 01:13:06;;;;;;;42.03;38.23;;;15.80;99.90;;;;;;6101753;23;20014;-81
2021/08/06 01:15:32;;;;;;;30.95;28.08;;;15.90;99.90;;;;;;6074571;23;20255;-80
2021/08/06 01:18:02;;;;;;;39.28;35.58;;;15.90;99.90;;;;;;6095608;23;20077;-82
2021/08/06 01:20:36;;;;;;;46.45;42.13;;;15.90;99.90;;;;;;6101803;23;20046;-80
2021/08/06 01:23:12;;;;;;;39.33;35.63;;;15.80;99.90;;;;;;6094330;23;20139;-81
2021/08/06 01:25:45;;;;;;;39.30;35.47;;;15.80;99.90;;;;;;6102057;23;20079;-81
2021/08/06 01:28:13;;;;;;;45.72;41.53;;;15.70;99.90;;;;;;6067748;23;20026;-80
2021/08/06 01:30:40;;;;;;;45.78;28.80;;;15.80;99.90;;;;;;6093019;23;20064;-82
2021/08/06 01:33:06;;;;;;;32.50;29.48;;;15.80;99.90;;;;;;6101852;23;20042;-82
2021/08/06 01:35:31;;;;;;;38.72;35.00;;;15.80;99.90;;;;;;6096658;23;20093;-80
2021/08/06 01:37:57;;;;;;;38.15;34.78;;;15.70;99.90;;;;;;6101918;23;20249;-82
2021/08/06 01:40:24;;;;;;;35.10;31.38;;;15.70;99.90;;;;;;6077607;23;20018;-80
2021/08/06 01:43:09;;;;;;;36.45;27.75;;;15.80;99.90;;;;;;6209145;23;20071;-82
2021/08/06 01:45:40;;;;;;;44.00;39.47;;;15.80;99.90;;;;;;6224149;23;20459;-82
2021/08/06 01:48:09;;;;;;;33.17;29.95;;;15.80;99.90;;;;;;6223669;23;20019;-81
2021/08/06 01:50:38;;;;;;;40.28;36.53;;;15.70;99.90;;;;;;6223870;23;20017;-82
2021/08/06 01:53:13;;;;;;;37.97;34.33;;;15.70;99.90;;;;;;6213614;23;20035;-80
2021/08/06 01:55:50;;;;;;;41.63;37.72;;;15.70;99.90;;;;;;6222126;23;20017;-81
2021/08/06 01:58:17;;;;;;;37.42;34.08;;;15.60;99.90;;;;;;6184655;23;20020;-81
2021/08/06 02:00:45;;;;;;;35.45;31.92;;;15.60;99.90;;;;;;6211599;23;20019;-80
2021/08/06 02:03:11;;;;;;;39.88;36.00;;;15.60;99.90;;;;;;6212341;23;20016;-81
2021/08/06 02:05:37;;;;;;;38.47;35.08;;;15.60;99.90;;;;;;6196195;23;20416;-81
2021/08/06 02:08:03;;;;;;;28.17;25.52;;;15.50;99.90;;;;;;6212595;23;20793;-79
2021/08/06 02:10:30;;;;;;;41.08;36.65;;;15.50;99.90;;;;;;6193055;23;20047;-80
2021/08/06 02:12:57;;;;;;;38.80;35.10;;;15.60;99.90;;;;;;6211072;23;20100;-80
2021/08/06 02:15:23;;;;;;;45.00;40.70;;;15.50;99.90;;;;;;6184856;23;20100;-81
2021/08/06 02:17:51;;;;;;;39.25;35.67;;;15.50;99.90;;;;;;6216429;23;20024;-80
2021/08/06 02:20:18;;;;;;;30.25;27.13;;;15.50;99.90;;;;;;6194555;23;20329;-81
2021/08/06 02:22:45;;;;;;;39.53;35.85;;;15.40;99.90;;;;;;6220663;23;20016;-80
2021/08/06 02:25:13;;;;;;;44.15;39.88;;;15.40;99.90;;;;;;6219721;23;20492;-79
2021/08/06 02:27:43;;;;;;;35.15;31.73;;;15.40;99.90;;;;;;6184980;23;20017;-80
2021/08/06 02:30:09;;;;;;;34.67;31.15;;;15.40;99.90;;;;;;6187597;23;20083;-81
2021/08/06 02:32:36;;;;;;;42.00;37.75;;;15.40;99.90;;;;;;6194089;23;20012;-80
2021/08/06 02:35:03;;;;;;;45.97;41.28;;;15.50;99.90;;;;;;6195675;23;20020;-81
2021/08/06 02:37:30;;;;;;;48.55;43.75;;;15.40;99.90;;;;;;6222462;23;20012;-80
2021/08/06 02:39:56;;;;;;;37.85;34.05;;;15.40;99.90;;;;;;6211362;23;20016;-82
2021/08/06 02:42:22;;;;;;;35.95;31.10;;;15.40;99.90;;;;;;6196318;23;20016;-80
2021/08/06 02:44:49;;;;;;;37.17;33.38;;;15.40;99.90;;;;;;6186476;23;20086;-80
2021/08/06 02:47:15;;;;;;;36.65;33.08;;;15.50;99.90;;;;;;6221550;23;20021;-79
2021/08/06 02:49:41;;;;;;;31.52;28.42;;;15.40;99.90;;;;;;6212267;23;20015;-79
2021/08/06 02:52:07;;;;;;;30.35;26.92;;;15.50;99.90;;;;;;6220757;23;20067;-82
2021/08/06 02:54:35;;;;;;;35.28;31.83;;;15.50;99.90;;;;;;6185739;23;20013;-79
2021/08/06 02:57:01;;;;;;;39.15;35.60;;;15.50;99.90;;;;;;6184562;23;20079;-80
2021/08/06 02:59:27;;;;;;;36.70;32.85;;;15.60;99.90;;;;;;6185610;23;20023;-79
2021/08/06 03:01:53;;;;;;;34.13;31.00;;;15.60;99.90;;;;;;6135044;23;20027;-79
2021/08/06 03:04:19;;;;;;;29.60;26.77;;;15.70;99.90;;;;;;6184858;23;20017;-79
2021/08/06 03:06:45;;;;;;;32.45;29.40;;;15.70;99.90;;;;;;6192188;23;20021;-80
2021/08/06 03:09:10;;;;;;;32.92;29.73;;;15.70;99.90;;;;;;6184459;23;20102;-79
2021/08/06 03:11:36;;;;;;;31.73;28.38;;;15.80;99.90;;;;;;6160168;23;20352;-80
2021/08/06 03:14:02;;;;;;;29.40;26.70;;;15.70;99.90;;;;;;6184422;23;20013;-80
2021/08/06 03:16:28;;;;;;;30.77;27.92;;;15.80;99.90;;;;;;6159024;23;20016;-81
2021/08/06 03:18:53;;;;;;;34.92;31.38;;;15.80;99.90;;;;;;6182660;23;20344;-81
2021/08/06 03:21:19;;;;;;;32.00;28.98;;;15.80;99.90;;;;;;6194495;23;20024;-80
2021/08/06 03:23:45;;;;;;;33.45;29.95;;;15.80;99.90;;;;;;6159155;23;20021;-80
2021/08/06 03:26:11;;;;;;;27.00;24.23;;;15.80;99.90;;;;;;6183765;23;20023;-80
2021/08/06 03:28:37;;;;;;;32.70;29.20;;;15.80;99.90;;;;;;6210917;23;20036;-80
2021/08/06 03:31:03;;;;;;;24.35;22.00;;;15.80;99.90;;;;;;6221458;23;20023;-79
2021/08/06 03:33:29;;;;;;;212.88;186.30;;;15.90;99.90;;;;;;6210233;23;20500;-79
2021/08/06 03:35:55;;;;;;;28.23;25.40;;;15.80;99.90;;;;;;6222189;23;20420;-80
2021/08/06 03:38:23;;;;;;;28.25;24.85;;;15.80;99.90;;;;;;6220150;23;20015;-79
2021/08/06 03:40:51;;;;;;;23.92;21.58;;;15.80;99.90;;;;;;6195994;23;20078;-80
2021/08/06 03:43:17;;;;;;;26.00;23.50;;;15.80;99.90;;;;;;6184310;23;20036;-80
2021/08/06 03:45:43;;;;;;;27.88;25.17;;;15.90;99.90;;;;;;6186754;23;20039;-81
2021/08/06 03:48:09;;;;;;;26.08;23.63;;;15.80;99.90;;;;;;6184830;23;20608;-78
2021/08/06 03:50:35;;;;;;;28.08;25.08;;;15.80;99.90;;;;;;6222238;23;20087;-79
2021/08/06 03:53:02;;;;;;;26.30;23.75;;;15.80;99.90;;;;;;6193726;23;20091;-80
2021/08/06 03:55:33;;;;;;;24.80;22.35;;;15.80;99.90;;;;;;6196380;23;20147;-79
2021/08/06 03:58:01;;;;;;;105.13;79.25;;;15.80;99.90;;;;;;6194584;23;20013;-80
2021/08/06 04:00:31;;;;;;;25.88;23.23;;;15.80;99.90;;;;;;6186830;23;20012;-80
2021/08/06 04:02:56;;;;;;;28.83;25.92;;;15.70;99.90;;;;;;6195290;23;20440;-79
2021/08/06 04:05:22;;;;;;;26.83;22.45;;;15.70;99.90;;;;;;6221265;23;20012;-80
2021/08/06 04:07:49;;;;;;;29.55;25.27;;;15.70;99.90;;;;;;6210888;23;20013;-79
2021/08/06 04:10:17;;;;;;;28.60;25.75;;;15.80;99.90;;;;;;6194153;23;20103;-79
2021/08/06 04:12:46;;;;;;;29.83;24.38;;;15.80;99.90;;;;;;6194280;23;20132;-78
2021/08/06 04:15:13;;;;;;;29.05;26.33;;;15.80;99.90;;;;;;6213347;23;20013;-79
2021/08/06 04:17:39;;;;;;;32.05;28.67;;;15.80;99.90;;;;;;6210747;23;20341;-80
2021/08/06 04:20:05;;;;;;;27.88;25.08;;;15.70;99.90;;;;;;6184148;23;20017;-82
2021/08/06 04:22:32;;;;;;;29.77;26.63;;;15.70;99.90;;;;;;6193605;23;20016;-81
2021/08/06 04:24:59;;;;;;;29.35;26.48;;;15.70;99.90;;;;;;6211634;23;20013;-79
2021/08/06 04:27:25;;;;;;;28.80;25.85;;;15.70;99.90;;;;;;6184882;23;20785;-80
2021/08/06 04:29:54;;;;;;;27.98;25.13;;;15.80;99.90;;;;;;6211775;23;20017;-81
2021/08/06 04:32:19;;;;;;;28.70;25.90;;;15.80;99.90;;;;;;6223650;23;20079;-79
2021/08/06 04:34:45;;;;;;;38.28;34.20;;;15.80;99.90;;;;;;6213016;23;20420;-81
2021/08/06 04:37:11;;;;;;;27.73;24.73;;;15.80;99.90;;;;;;6196879;23;20009;-80
2021/08/06 04:39:37;;;;;;;27.10;24.27;;;15.80;99.90;;;;;;6212508;23;20013;-79
2021/08/06 04:42:04;;;;;;;29.35;25.48;;;15.80;99.90;;;;;;6223633;23;20013;-80
2021/08/06 04:44:34;;;;;;;33.78;30.27;;;15.90;99.90;;;;;;6196043;23;20028;-80
2021/08/06 04:47:00;;;;;;;25.92;23.30;;;15.90;99.90;;;;;;6196222;23;20103;-79
2021/08/06 04:49:28;;;;;;;29.08;26.33;;;15.90;99.90;;;;;;6187481;23;20086;-80
2021/08/06 04:51:54;;;;;;;28.90;26.08;;;15.90;99.90;;;;;;6222849;23;20425;-77
2021/08/06 04:54:20;;;;;;;30.02;26.98;;;15.90;99.90;;;;;;6222795;23;20066;-77
2021/08/06 04:56:46;;;;;;;43.17;38.78;;;15.90;99.90;;;;;;6210779;23;20035;-78
2021/08/06 04:59:11;;;;;;;34.22;30.38;;;16.00;99.90;;;;;;6212969;23;20009;-78
2021/08/06 05:01:37;;;;;;;35.53;32.22;;;16.00;99.90;;;;;;6222097;23;20086;-77
2021/08/06 05:04:03;;;;;;;52.67;47.10;;;16.10;99.90;;;;;;6197240;23;20013;-78
2021/08/06 05:06:30;;;;;;;34.20;30.58;;;16.20;99.90;;;;;;6185584;23;20115;-80
2021/08/06 05:08:55;;;;;;;28.88;25.88;;;16.30;99.90;;;;;;6186346;23;20118;-80
2021/08/06 05:11:21;;;;;;;33.17;29.75;;;16.30;99.90;;;;;;6189995;23;20009;-79
2021/08/06 05:13:48;;;;;;;37.25;33.50;;;16.40;99.90;;;;;;6193233;23;20027;-81
2021/08/06 05:16:15;;;;;;;28.15;25.35;;;16.40;99.90;;;;;;6186706;23;20927;-80
2021/08/06 05:18:41;;;;;;;37.22;33.38;;;16.40;99.90;;;;;;6217741;23;20013;-77
2021/08/06 05:21:06;;;;;;;44.25;39.35;;;16.40;99.90;;;;;;6186116;23;20392;-79
2021/08/06 05:23:32;;;;;;;38.67;34.95;;;16.50;99.90;;;;;;6220003;23;20031;-79
2021/08/06 05:25:58;;;;;;;41.97;37.95;;;16.60;99.90;;;;;;6221921;23;20009;-79
2021/08/06 05:28:25;;;;;;;30.92;28.15;;;16.50;99.90;;;;;;6222581;23;20032;-79
2021/08/06 05:30:51;;;;;;;28.00;25.50;;;16.50;99.90;;;;;;6212301;23;20024;-81
2021/08/06 05:33:20;;;;;;;22.60;19.48;;;16.40;99.90;;;;;;6223329;23;20798;-79
2021/08/06 05:35:46;;;;;;;33.30;29.95;;;16.50;99.90;;;;;;6222688;23;20448;-79
2021/08/06 05:38:11;;;;;;;41.20;37.28;;;16.50;99.90;;;;;;6220291;23;20020;-78
2021/08/06 05:40:41;;;;;;;24.05;21.58;;;16.50;99.90;;;;;;6159873;23;20068;-79
2021/08/06 05:43:06;;;;;;;26.73;24.23;;;16.50;99.90;;;;;;6221480;23;20438;-79
2021/08/06 05:45:32;;;;;;;35.67;32.42;;;16.60;99.90;;;;;;6215218;23;20063;-80
2021/08/06 05:47:58;;;;;;;41.78;37.33;;;16.60;99.90;;;;;;6221746;23;20083;-80
2021/08/06 05:50:26;;;;;;;38.45;34.65;;;16.60;99.90;;;;;;6185480;23;20013;-79
2021/08/06 05:52:52;;;;;;;26.90;24.02;;;16.50;99.90;;;;;;6159445;23;20668;-79
2021/08/06 05:55:19;;;;;;;64.20;57.25;;;16.70;99.90;;;;;;6221280;23;20082;-79
2021/08/06 05:57:45;;;;;;;46.63;42.03;;;16.70;99.90;;;;;;6184315;23;20077;-78
2021/08/06 06:00:14;;;;;;;28.48;25.65;;;16.70;99.90;;;;;;6216456;23;20013;-79
2021/08/06 06:02:39;;;;;;;42.65;38.65;;;16.80;99.90;;;;;;6195705;23;20107;-79
2021/08/06 06:05:06;;;;;;;40.63;36.42;;;16.90;99.90;;;;;;6223051;23;20416;-80
2021/08/06 06:07:47;;;;;;;85.78;72.72;;;17.00;99.90;;;;;;6161471;23;20054;-79
2021/08/06 06:10:17;;;;;;;43.40;39.15;;;17.10;99.90;;;;;;6221544;23;20037;-85
2021/08/06 06:12:43;;;;;;;43.00;38.05;;;17.30;99.90;;;;;;6186341;23;20009;-79
2021/08/06 06:15:10;;;;;;;38.63;34.60;;;17.60;99.90;;;;;;6186296;23;20009;-79
2021/08/06 06:17:36;;;;;;;30.95;28.38;;;17.80;99.90;;;;;;6161356;23;20123;-81
2021/08/06 06:20:02;;;;;;;42.50;38.30;;;17.90;99.90;;;;;;6156734;23;20127;-80
2021/08/06 06:22:28;;;;;;;33.67;30.48;;;18.00;99.90;;;;;;6181283;23;20039;-77
2021/08/06 06:24:54;;;;;;;72.70;58.63;;;18.10;99.90;;;;;;6181902;23;20005;-81
2021/08/06 06:27:20;;;;;;;47.92;42.28;;;18.30;99.90;;;;;;6181132;23;20009;-79
2021/08/06 06:29:45;;;;;;;57.05;50.95;;;18.30;99.90;;;;;;6189013;23;20017;-79
2021/08/06 06:32:12;;;;;;;141.55;109.93;;;18.40;99.90;;;;;;6183639;23;20314;-79
2021/08/06 06:34:38;;;;;;;54.15;49.10;;;18.40;99.90;;;;;;6191516;23;20020;-82
2021/08/06 06:37:06;;;;;;;100.78;72.80;;;18.40;99.90;;;;;;6193126;23;20488;-81
2021/08/06 06:39:33;;;;;;;74.03;63.60;;;18.50;99.90;;;;;;6190496;23;20096;-77
2021/08/06 06:41:59;;;;;;;91.28;75.28;;;18.60;99.90;;;;;;6178441;23;20357;-79
2021/08/06 06:44:25;;;;;;;308.17;267.25;;;18.70;99.90;;;;;;6182027;23;20021;-77
2021/08/06 06:46:51;;;;;;;35.80;30.70;;;18.80;99.90;;;;;;6156876;23;20140;-76
2021/08/06 06:49:16;;;;;;;104.45;75.50;;;18.90;99.90;;;;;;6192570;23;20013;-76
2021/08/06 06:51:42;;;;;;;124.00;91.18;;;18.80;99.90;;;;;;6193052;23;20017;-77
2021/08/06 06:54:08;;;;;;;114.40;85.63;;;18.80;99.90;;;;;;6190304;23;20009;-76
2021/08/06 06:56:34;;;;;;;79.95;68.68;;;18.90;99.90;;;;;;6194112;23;20099;-77
2021/08/06 06:59:00;;;;;;;91.95;67.70;;;18.90;99.90;;;;;;6191424;23;20112;-77
2021/08/06 07:01:25;;;;;;;378.08;324.92;;;19.00;99.90;;;;;;6183470;23;20139;-76
2021/08/06 07:03:51;;;;;;;91.45;72.80;;;19.00;99.90;;;;;;6191495;23;20433;-75
2021/08/06 07:06:21;;;;;;;103.93;71.97;;;19.00;99.90;;;;;;6183567;23;20021;-76
2021/08/06 07:08:47;;;;;;;95.93;70.68;;;19.00;99.90;;;;;;6181217;23;20017;-75
2021/08/06 07:11:13;;;;;;;111.88;76.05;;;19.10;99.90;;;;;;6191589;23;20013;-77
2021/08/06 07:13:39;;;;;;;97.00;68.22;;;19.10;99.90;;;;;;6181567;23;20021;-75
2021/08/06 07:16:06;;;;;;;50.55;39.35;;;19.10;99.90;;;;;;6185203;23;20013;-76
2021/08/06 07:18:32;;;;;;;241.32;181.52;;;19.10;99.90;;;;;;6198148;23;20091;-76
2021/08/06 07:21:00;;;;;;;216.73;178.13;;;19.30;99.90;;;;;;6161361;23;20467;-77
2021/08/06 07:23:30;;;;;;;94.43;70.70;;;19.30;99.90;;;;;;6212065;23;20024;-77
2021/08/06 07:25:57;;;;;;;74.82;61.67;;;19.20;99.90;;;;;;6186801;23;20173;-77
2021/08/06 07:28:23;;;;;;;82.95;60.55;;;19.10;99.90;;;;;;6186580;23;20009;-77
2021/08/06 07:30:48;;;;;;;73.05;65.13;;;19.00;99.90;;;;;;6189682;23;20017;-77
2021/08/06 07:33:15;;;;;;;71.68;55.20;;;18.80;99.90;;;;;;6212658;23;20447;-77
2021/08/06 07:35:41;;;;;;;202.27;152.07;;;18.70;99.90;;;;;;6211185;23;20012;-79
2021/08/06 07:38:06;;;;;;;383.80;323.20;;;18.70;99.90;;;;;;6161514;23;20008;-79
2021/08/06 07:40:32;;;;;;;69.20;54.10;;;18.50;99.90;;;;;;6212557;23;20456;-77
2021/08/06 07:42:59;;;;;;;66.97;51.60;;;18.40;99.90;;;;;;6196410;23;20444;-77
2021/08/06 07:45:25;;;;;;;91.75;74.60;;;18.40;99.90;;;;;;6218284;23;20035;-76
2021/08/06 07:47:51;;;;;;;70.55;59.50;;;18.40;99.90;;;;;;6186880;23;20012;-76
2021/08/06 07:50:18;;;;;;;70.45;59.78;;;18.30;99.90;;;;;;6212154;23;20018;-76
2021/08/06 07:52:43;;;;;;;135.80;89.93;;;18.30;99.90;;;;;;6221537;23;20012;-77
2021/08/06 07:55:12;;;;;;;69.53;54.08;;;18.30;99.90;;;;;;6184643;23;20156;-78
2021/08/06 07:57:39;;;;;;;169.00;135.52;;;18.30;99.90;;;;;;6222460;23;20266;-77
2021/08/06 08:00:06;;;;;;;55.50;46.47;;;18.30;99.90;;;;;;6186103;23;20043;-78
2021/08/06 08:02:32;;;;;;;171.15;134.50;;;18.20;99.90;;;;;;6184790;23;20017;-78
2021/08/06 08:04:58;;;;;;;85.00;67.68;;;18.30;99.90;;;;;;6211898;23;20008;-78
2021/08/06 08:07:23;;;;;;;64.60;57.50;;;18.30;99.90;;;;;;6185029;23;20028;-79
2021/08/06 08:09:49;;;;;;;54.65;43.25;;;18.30;99.90;;;;;;6182266;23;20428;-77
2021/08/06 08:12:15;;;;;;;86.00;56.53;;;18.30;99.90;;;;;;6220278;23;20027;-78
2021/08/06 08:14:41;;;;;;;107.03;78.82;;;18.40;99.90;;;;;;6219790;23;20013;-77
2021/08/06 08:17:06;;;;;;;110.70;83.22;;;18.50;99.90;;;;;;6185954;23;20103;-76
2021/08/06 08:19:32;;;;;;;90.78;74.18;;;18.70;99.90;;;;;;6215502;23;20440;-77
2021/08/06 08:21:58;;;;;;;155.27;127.13;;;18.70;99.90;;;;;;6221860;23;20016;-79
2021/08/06 08:24:24;;;;;;;108.55;82.88;;;18.70;99.90;;;;;;6221211;23;20108;-80
2021/08/06 08:26:50;;;;;;;334.80;244.50;;;18.80;99.90;;;;;;6222252;23;20012;-77
2021/08/06 08:29:15;;;;;;;82.45;57.63;;;18.90;99.90;;;;;;6185240;23;20040;-79
2021/08/06 08:31:41;;;;;;;95.05;69.40;;;19.00;99.90;;;;;;6185527;23;20068;-78
2021/08/06 08:34:11;;;;;;;107.40;88.95;;;19.00;99.90;;;;;;6222024;23;20411;-79
2021/08/06 08:36:37;;;;;;;86.55;69.47;;;18.90;99.90;;;;;;6160884;23;20023;-78
2021/08/06 08:39:05;;;;;;;88.25;67.25;;;18.90;99.90;;;;;;6211046;23;20087;-78
2021/08/06 08:41:31;;;;;;;381.27;321.65;;;18.80;99.90;;;;;;6195974;23;20019;-77
2021/08/06 08:43:57;;;;;;;64.65;47.72;;;18.90;99.90;;;;;;6184569;23;20017;-77
2021/08/06 08:46:29;;;;;;;119.32;81.80;;;19.00;99.90;;;;;;6213249;23;20118;-77
2021/08/06 08:48:57;;;;;;;76.15;61.88;;;19.20;99.90;;;;;;6222925;23;20118;-77
2021/08/06 08:51:25;;;;;;;105.63;69.28;;;19.20;99.90;;;;;;6222763;23;20017;-77
2021/08/06 08:53:50;;;;;;;187.43;135.07;;;19.30;99.90;;;;;;6221991;23;20055;-77
2021/08/06 08:56:16;;;;;;;114.55;92.00;;;19.20;99.90;;;;;;6222778;23;20009;-77
2021/08/06 08:58:42;;;;;;;282.88;233.73;;;19.30;99.90;;;;;;6183349;23;20419;-76
2021/08/06 09:01:08;;;;;;;122.82;82.85;;;19.30;99.90;;;;;;6184221;23;20017;-77
2021/08/06 09:03:39;;;;;;;78.68;58.65;;;19.40;99.90;;;;;;6211423;23;20332;-77
2021/08/06 09:06:05;;;;;;;67.93;52.35;;;19.50;99.90;;;;;;6211292;23;20020;-76
2021/08/06 09:08:31;;;;;;;113.35;78.82;;;19.60;99.90;;;;;;6220930;23;20075;-78
2021/08/06 09:10:57;;;;;;;125.80;91.65;;;19.70;99.90;;;;;;6223632;23;20016;-76
2021/08/06 09:13:24;;;;;;;78.53;57.13;;;19.70;99.90;;;;;;6186619;23;20017;-77
2021/08/06 09:15:58;;;;;;;266.85;216.57;;;19.80;99.90;;;;;;6191506;23;20020;-77
2021/08/06 09:18:27;;;;;;;108.00;71.35;;;19.80;99.90;;;;;;6221636;23;20012;-77
2021/08/06 09:20:54;;;;;;;118.30;85.93;;;19.80;99.90;;;;;;6187088;23;20021;-77
2021/08/06 09:23:44;;;;;;;113.13;87.13;;;19.80;99.90;;;;;;6222670;23;20293;-77
2021/08/06 09:26:34;;;;;;;102.78;78.35;;;19.80;99.90;;;;;;6223074;23;20317;-76
2021/08/06 09:29:05;;;;;;;81.68;57.20;;;19.70;99.90;;;;;;6186226;23;20021;-76
2021/08/06 09:31:32;;;;;;;125.05;81.43;;;19.70;99.90;;;;;;6215653;23;20424;-77
2021/08/06 09:34:07;;;;;;;119.35;85.05;;;19.70;99.90;;;;;;6196814;23;20013;-76
2021/08/06 09:36:35;;;;;;;87.72;66.55;;;19.60;99.90;;;;;;6186999;23;20122;-76
2021/08/06 09:39:14;;;;;;;365.63;309.88;;;19.70;99.90;;;;;;6222718;23;20100;-75
2021/08/06 09:41:44;;;;;;;96.85;74.32;;;19.70;99.90;;;;;;6185905;23;20021;-77
2021/08/06 09:44:14;;;;;;;202.63;157.52;;;19.80;99.90;;;;;;6223803;23;20020;-77
2021/08/06 09:46:40;;;;;;;112.22;73.10;;;19.70;99.90;;;;;;6186905;23;20097;-77
2021/08/06 09:49:07;;;;;;;74.03;54.63;;;19.80;99.90;;;;;;6223668;23;20059;-78
2021/08/06 09:51:39;;;;;;;111.55;77.93;;;19.70;99.90;;;;;;6161512;23;20062;-77
2021/08/06 09:54:20;;;;;;;270.42;220.07;;;19.80;99.90;;;;;;6185557;23;20058;-80
2021/08/06 09:56:47;;;;;;;103.32;79.32;;;19.80;99.90;;;;;;6187132;23;20104;-79
2021/08/06 09:59:26;;;;;;;83.32;69.82;;;19.80;99.90;;;;;;6223699;23;20012;-78
2021/08/06 10:02:16;;;;;;;101.82;77.82;;;19.80;99.90;;;;;;6213181;23;20051;-79
2021/08/06 10:04:44;;;;;;;40.85;34.50;;;19.90;99.90;;;;;;6223178;23;20013;-78
2021/08/06 10:07:11;;;;;;;127.78;93.65;;;20.00;99.90;;;;;;6186604;23;20027;-77
2021/08/06 10:09:37;;;;;;;241.25;184.13;;;20.10;99.90;;;;;;6186012;23;20023;-77
2021/08/06 10:12:04;;;;;;;209.63;161.13;;;20.30;99.90;;;;;;6187684;23;20013;-76
2021/08/06 10:14:31;;;;;;;104.97;72.60;;;20.30;99.90;;;;;;6186416;23;20017;-77
2021/08/06 10:16:57;;;;;;;118.78;71.68;;;20.40;99.90;;;;;;6213975;23;20009;-79
2021/08/06 10:19:23;;;;;;;99.03;67.22;;;20.70;99.90;;;;;;6217509;23;20071;-79
2021/08/06 10:21:49;;;;;;;73.82;49.10;;;21.00;99.90;;;;;;6223608;23;20020;-78
2021/08/06 10:24:16;;;;;;;188.43;126.13;;;21.10;99.90;;;;;;6186181;23;20013;-78
2021/08/06 10:26:47;;;;;;;243.93;203.93;;;21.30;99.90;;;;;;6224098;23;20093;-78
2021/08/06 10:29:14;;;;;;;370.38;323.95;;;21.60;99.90;;;;;;6223768;23;20377;-78
2021/08/06 10:31:40;;;;;;;108.40;75.70;;;21.80;99.90;;;;;;6213440;23;20028;-78
2021/08/06 10:34:12;;;;;;;131.70;86.55;;;21.70;99.90;;;;;;6223450;23;20012;-78
2021/08/06 10:36:44;;;;;;;135.15;87.35;;;21.70;99.90;;;;;;6224087;23;20443;-78
2021/08/06 10:39:36;;;;;;;158.30;111.63;;;21.70;99.90;;;;;;6185663;23;20059;-78
2021/08/06 10:42:03;;;;;;;128.02;86.60;;;21.60;99.90;;;;;;6223842;23;20016;-79
2021/08/06 10:44:57;;;;;;;180.85;131.82;;;21.70;99.90;;;;;;6222251;23;20111;-78
2021/08/06 10:47:49;;;;;;;147.77;97.20;;;21.90;99.90;;;;;;6185945;23;20021;-78
2021/08/06 10:50:17;;;;;;;168.30;125.93;;;22.20;99.90;;;;;;6185929;23;20082;-78
2021/08/06 10:52:43;;;;;;;129.88;86.68;;;22.50;99.90;;;;;;6222353;23;20008;-78
2021/08/06 10:55:20;;;;;;;98.63;71.55;;;22.60;99.90;;;;;;6183968;23;20416;-78
2021/08/06 10:57:46;;;;;;;261.67;193.50;;;22.80;99.90;;;;;;6222937;23;20021;-79
2021/08/06 11:00:32;;;;;;;143.98;95.63;;;22.90;99.90;;;;;;6185359;23;20089;-79
2021/08/06 11:02:58;;;;;;;279.70;190.13;;;22.90;99.90;;;;;;6185989;23;20470;-79
2021/08/06 11:05:38;;;;;;;202.68;137.85;;;22.90;99.90;;;;;;6222646;23;20080;-75
2021/08/06 11:08:43;;;;;;;121.53;82.32;;;22.70;99.90;;;;;;6186446;23;20019;-79
2021/08/06 11:11:08;;;;;;;132.27;81.50;;;22.60;99.90;;;;;;6185788;23;20106;-78
2021/08/06 11:13:46;;;;;;;220.80;161.30;;;22.30;99.90;;;;;;6185450;23;20369;-76
2021/08/06 11:16:13;;;;;;;200.18;138.55;;;22.20;99.90;;;;;;6185502;23;20031;-78
2021/08/06 11:18:43;;;;;;;220.63;160.02;;;22.10;99.90;;;;;;6219283;23;20115;-77
2021/08/06 11:21:09;;;;;;;267.17;200.50;;;22.00;99.90;;;;;;6222729;23;20013;-77
2021/08/06 11:23:35;;;;;;;191.07;140.95;;;21.70;99.90;;;;;;6221222;23;20090;-77
2021/08/06 11:26:10;;;;;;;154.38;106.45;;;21.60;99.90;;;;;;6222170;23;20039;-76
2021/08/06 11:28:37;;;;;;;120.03;80.65;;;21.40;99.90;;;;;;6222275;23;20038;-80
2021/08/06 11:31:18;;;;;;;299.33;220.35;;;21.30;99.90;;;;;;6186643;23;20017;-79
2021/08/06 11:33:44;;;;;;;154.90;107.28;;;21.20;99.90;;;;;;6185494;23;20016;-78
2021/08/06 11:36:17;;;;;;;111.38;76.10;;;21.20;99.90;;;;;;6186220;23;20067;-75
2021/08/06 11:38:43;;;;;;;155.73;103.20;;;21.20;99.90;;;;;;6221653;23;20017;-76
2021/08/06 11:41:09;;;;;;;135.50;99.15;;;21.10;99.90;;;;;;6223258;23;20075;-76
2021/08/06 11:43:39;;;;;;;103.43;69.18;;;21.10;99.90;;;;;;6223315;23;20433;-80
2021/08/06 11:46:11;;;;;;;158.95;103.97;;;21.30;99.90;;;;;;6187304;23;20017;-77
2021/08/06 11:48:48;;;;;;;214.60;139.27;;;21.50;99.90;;;;;;6223139;23;20020;-78
2021/08/06 11:51:14;;;;;;;94.13;65.60;;;21.60;99.90;;;;;;6223203;23;20012;-77
2021/08/06 11:53:40;;;;;;;149.43;106.63;;;21.60;99.90;;;;;;6220901;23;20017;-79
2021/08/06 11:56:17;;;;;;;236.10;164.00;;;21.70;99.90;;;;;;6185715;23;20348;-78
2021/08/06 11:58:44;;;;;;;155.90;95.80;;;21.70;99.90;;;;;;6159083;23;20017;-78
2021/08/06 12:01:19;;;;;;;450.20;358.52;;;21.90;99.90;;;;;;6222385;23;20013;-79
2021/08/06 12:03:55;;;;;;;224.52;155.88;;;22.40;99.90;;;;;;6209176;23;20142;-79
2021/08/06 12:06:22;;;;;;;197.50;117.40;;;22.90;99.90;;;;;;6219774;23;20341;-78
2021/08/06 12:08:49;;;;;;;140.10;89.25;;;23.20;99.90;;;;;;6183938;23;20091;-79
2021/08/06 12:11:20;;;;;;;184.65;124.82;;;23.50;99.90;;;;;;6222262;23;20463;-78
2021/08/06 12:13:56;;;;;;;137.63;88.63;;;23.50;99.90;;;;;;6184146;23;20020;-77
2021/08/06 12:16:30;;;;;;;199.30;134.63;;;23.50;99.90;;;;;;6211912;23;20008;-77
2021/08/06 12:18:57;;;;;;;220.32;152.02;;;23.80;99.90;;;;;;6184440;23;20021;-74
2021/08/06 12:21:29;;;;;;;201.57;138.85;;;23.80;99.90;;;;;;6211473;23;20012;-77
2021/08/06 12:23:56;;;;;;;187.48;120.57;;;23.60;99.90;;;;;;6184174;23;20016;-77
2021/08/06 12:26:33;;;;;;;180.50;126.05;;;23.50;99.90;;;;;;6221568;23;20375;-81
2021/08/06 12:29:10;;;;;;;146.07;98.28;;;23.40;99.90;;;;;;6221912;23;20195;-79